createdAt,value
2023-01-03T00:00:23.510Z,9.747384
2023-01-03T00:01:23.446Z,9.747437
2023-01-03T00:02:23.531Z,9.747435
2023-01-03T00:03:23.421Z,9.747309
2023-01-03T00:04:23.536Z,9.747263
2023-01-03T00:05:23.485Z,9.747237
2023-01-03T00:06:23.582Z,9.747457
2023-01-03T00:07:23.398Z,9.747565
2023-01-03T00:08:23.412Z,9.747332
2023-01-03T00:09:23.454Z,9.747362
2023-01-03T00:10:23.467Z,9.747456
2023-01-03T00:11:23.365Z,9.747370
2023-01-03T00:12:30.412Z,9.747350
2023-01-03T00:13:25.367Z,9.747329
2023-01-03T00:14:23.399Z,9.747281
2023-01-03T00:15:23.376Z,9.747344
2023-01-03T00:16:23.478Z,9.747452
2023-01-03T00:17:23.671Z,9.747345
2023-01-03T00:18:23.340Z,9.747263
2023-01-03T00:19:23.419Z,9.747288
2023-01-03T00:20:23.420Z,9.747367
2023-01-03T00:21:23.311Z,9.747421
2023-01-03T00:22:23.412Z,9.747418
2023-01-03T00:23:23.279Z,9.747405
2023-01-03T00:24:23.387Z,9.747448
2023-01-03T00:25:23.324Z,9.747376
2023-01-03T00:26:23.336Z,9.747493
2023-01-03T00:27:23.246Z,9.747423
2023-01-03T00:28:23.298Z,9.747318
2023-01-03T00:29:23.232Z,9.747395
2023-01-03T00:30:23.305Z,9.747405
2023-01-03T00:31:23.326Z,9.747336
2023-01-03T00:32:23.281Z,9.747354
2023-01-03T00:33:23.225Z,9.747332
2023-01-03T00:34:23.243Z,9.747322
2023-01-03T00:35:23.219Z,9.747368
2023-01-03T00:36:23.181Z,9.747378
2023-01-03T00:37:23.189Z,9.747417
2023-01-03T00:38:23.176Z,9.747449
2023-01-03T00:39:23.164Z,9.747431
2023-01-03T00:40:23.268Z,9.747400
2023-01-03T00:41:23.154Z,9.747361
2023-01-03T00:42:23.208Z,9.747394
2023-01-03T00:43:23.118Z,9.747391
2023-01-03T00:44:23.136Z,9.747377
2023-01-03T00:45:25.561Z,9.747395
2023-01-03T00:46:24.227Z,9.747422
2023-01-03T00:47:23.151Z,9.747369
2023-01-03T00:48:23.101Z,9.747337
2023-01-03T00:49:23.108Z,9.747276
2023-01-03T00:50:23.124Z,9.747377
2023-01-03T00:51:23.067Z,9.747316
2023-01-03T00:52:23.057Z,9.747384
2023-01-03T00:53:23.054Z,9.747335
2023-01-03T00:54:23.045Z,9.747419
2023-01-03T00:55:23.077Z,9.747332
2023-01-03T00:56:23.022Z,9.747334
2023-01-03T00:57:23.035Z,9.747387
2023-01-03T00:58:23.012Z,9.747503
2023-01-03T00:59:23.104Z,9.747461
2023-01-03T01:00:23.031Z,9.747456
2023-01-03T01:01:23.012Z,9.747425
2023-01-03T01:02:23.131Z,9.747411
2023-01-03T01:03:23.132Z,9.747477
2023-01-03T01:04:22.983Z,9.747468
2023-01-03T01:05:22.977Z,9.747409
2023-01-03T01:06:22.934Z,9.747437
2023-01-03T01:07:23.016Z,9.747465
2023-01-03T01:08:22.987Z,9.747448
2023-01-03T01:09:22.945Z,9.747444
2023-01-03T01:10:22.977Z,9.747394
2023-01-03T01:11:22.930Z,9.747422
2023-01-03T01:12:22.917Z,9.747371
2023-01-03T01:13:22.926Z,9.747389
2023-01-03T01:14:22.878Z,9.747406
2023-01-03T01:15:22.994Z,9.747473
2023-01-03T01:16:22.945Z,9.747484
2023-01-03T01:17:23.281Z,9.747420
2023-01-03T01:18:22.924Z,9.747402
2023-01-03T01:19:22.925Z,9.747399
2023-01-03T01:20:23.043Z,9.747412
2023-01-03T01:21:22.876Z,9.747469
2023-01-03T01:22:22.818Z,9.747424
2023-01-03T01:23:22.802Z,9.747426
2023-01-03T01:24:22.829Z,9.747436
2023-01-03T01:25:22.819Z,9.747519
2023-01-03T01:26:22.828Z,9.747511
2023-01-03T01:27:23.878Z,9.747376
2023-01-03T01:28:22.841Z,9.747386
2023-01-03T01:29:22.784Z,9.747341
2023-01-03T01:30:22.820Z,9.747474
2023-01-03T01:31:22.835Z,9.747425
2023-01-03T01:32:22.957Z,9.747283
2023-01-03T01:33:22.737Z,9.747344
2023-01-03T01:34:22.852Z,9.747350
2023-01-03T01:35:22.870Z,9.747321
2023-01-03T01:36:22.733Z,9.747303
2023-01-03T01:37:22.721Z,9.747296
2023-01-03T01:38:22.731Z,9.747354
2023-01-03T01:39:22.752Z,9.747419
2023-01-03T01:40:22.822Z,9.747365
2023-01-03T01:41:22.790Z,9.747473
2023-01-03T01:42:27.307Z,9.747437
2023-01-03T01:43:23.711Z,9.747373
2023-01-03T01:44:22.655Z,9.747519
2023-01-03T01:45:22.645Z,9.747462
2023-01-03T01:46:22.771Z,9.747373
2023-01-03T01:47:22.648Z,9.747384
2023-01-03T01:48:22.647Z,9.747516
2023-01-03T01:49:22.647Z,9.747451
2023-01-03T01:50:22.624Z,9.747437
2023-01-03T01:51:22.659Z,9.747350
2023-01-03T01:52:22.597Z,9.747585
2023-01-03T01:53:22.605Z,9.747445
2023-01-03T01:54:22.581Z,9.747379
2023-01-03T01:55:22.584Z,9.747449
2023-01-03T01:56:22.596Z,9.747519
2023-01-03T01:57:22.547Z,9.747422
2023-01-03T01:58:22.542Z,9.747398
2023-01-03T01:59:22.537Z,9.747408
2023-01-03T02:00:22.519Z,9.747416
2023-01-03T02:01:22.732Z,9.747461
2023-01-03T02:02:22.811Z,9.747357
2023-01-03T02:03:22.534Z,9.747392
2023-01-03T02:04:22.513Z,9.747375
2023-01-03T02:05:22.501Z,9.747337
2023-01-03T02:06:22.504Z,9.747406
2023-01-03T02:07:22.549Z,9.747473
2023-01-03T02:08:22.623Z,9.747473
2023-01-03T02:09:22.475Z,9.747497
2023-01-03T02:10:22.491Z,9.747438
2023-01-03T02:11:22.519Z,9.747459
2023-01-03T02:12:22.447Z,9.747376
2023-01-03T02:13:22.484Z,9.747349
2023-01-03T02:14:22.434Z,9.747308
2023-01-03T02:15:22.480Z,9.747489
2023-01-03T02:16:22.545Z,9.747435
2023-01-03T02:17:22.442Z,9.747229
2023-01-03T02:18:22.403Z,9.747117
2023-01-03T02:19:22.384Z,9.747254
2023-01-03T02:20:22.388Z,9.747415
2023-01-03T02:21:22.415Z,9.747159
2023-01-03T02:22:22.361Z,9.747247
2023-01-03T02:23:23.348Z,9.747452
2023-01-03T02:24:22.370Z,9.747230
2023-01-03T02:25:22.329Z,9.747290
2023-01-03T02:26:22.340Z,9.747105
2023-01-03T02:27:22.320Z,9.747230
2023-01-03T02:28:22.411Z,9.747377
2023-01-03T02:29:22.292Z,9.747333
2023-01-03T02:30:22.301Z,9.747285
2023-01-03T02:31:22.363Z,9.747252
2023-01-03T02:32:22.308Z,9.747395
2023-01-03T02:33:22.287Z,9.747286
2023-01-03T02:34:22.283Z,9.747310
2023-01-03T02:35:22.270Z,9.747312
2023-01-03T02:36:22.287Z,9.747215
2023-01-03T02:37:22.246Z,9.747309
2023-01-03T02:38:23.229Z,9.747291
2023-01-03T02:39:23.994Z,9.747253
2023-01-03T02:40:23.245Z,9.747164
2023-01-03T02:41:22.224Z,9.747263
2023-01-03T02:42:22.200Z,9.747265
2023-01-03T02:43:22.191Z,9.747313
2023-01-03T02:44:22.174Z,9.747390
2023-01-03T02:45:22.177Z,9.747225
2023-01-03T02:46:22.259Z,9.747335
2023-01-03T02:47:22.157Z,9.747438
2023-01-03T02:48:22.153Z,9.747335
2023-01-03T02:49:22.137Z,9.747324
2023-01-03T02:50:22.121Z,9.747377
2023-01-03T02:51:23.148Z,9.747421
2023-01-03T02:52:22.117Z,9.747214
2023-01-03T02:53:22.110Z,9.747243
2023-01-03T02:54:22.107Z,9.747366
2023-01-03T02:55:22.145Z,9.747305
2023-01-03T02:56:22.119Z,9.747157
2023-01-03T02:57:22.082Z,9.747243
2023-01-03T02:58:22.063Z,9.747279
2023-01-03T02:59:22.080Z,9.747313
2023-01-03T03:00:22.066Z,9.747297
2023-01-03T03:01:22.178Z,9.747217
2023-01-03T03:02:22.236Z,9.747391
2023-01-03T03:03:22.055Z,9.747299
2023-01-03T03:04:22.022Z,9.747283
2023-01-03T03:05:22.027Z,9.747291
2023-01-03T03:06:22.037Z,9.747360
2023-01-03T03:07:21.997Z,9.747366
2023-01-03T03:08:22.001Z,9.747293
2023-01-03T03:09:22.005Z,9.747128
2023-01-03T03:10:21.977Z,9.747152
2023-01-03T03:11:22.007Z,9.747185
2023-01-03T03:12:21.972Z,9.747271
2023-01-03T03:13:21.955Z,9.747266
2023-01-03T03:14:21.958Z,9.747193
2023-01-03T03:15:21.942Z,9.747361
2023-01-03T03:16:22.007Z,9.747447
2023-01-03T03:17:21.955Z,9.747236
2023-01-03T03:18:21.926Z,9.747508
2023-01-03T03:19:21.917Z,9.747487
2023-01-03T03:20:21.907Z,9.747562
2023-01-03T03:21:21.899Z,9.747606
2023-01-03T03:22:21.921Z,9.747594
2023-01-03T03:23:21.876Z,9.747601
2023-01-03T03:24:21.870Z,9.747568
2023-01-03T03:25:22.689Z,9.747507
2023-01-03T03:26:21.856Z,9.747512
2023-01-03T03:27:21.885Z,9.747491
2023-01-03T03:28:21.845Z,9.747516
2023-01-03T03:29:21.837Z,9.747493
2023-01-03T03:30:21.829Z,9.747448
2023-01-03T03:31:21.915Z,9.747426
2023-01-03T03:32:21.951Z,9.747364
2023-01-03T03:33:21.811Z,9.747530
2023-01-03T03:34:21.800Z,9.747528
2023-01-03T03:35:21.787Z,9.747531
2023-01-03T03:36:21.783Z,9.747423
2023-01-03T03:37:21.796Z,9.747448
2023-01-03T03:38:21.777Z,9.747451
2023-01-03T03:39:21.768Z,9.747491
2023-01-03T03:40:21.751Z,9.747511
2023-01-03T03:41:21.738Z,9.747448
2023-01-03T03:42:21.762Z,9.747462
2023-01-03T03:43:21.729Z,9.747336
2023-01-03T03:44:21.716Z,9.747408
2023-01-03T03:45:21.738Z,9.747448
2023-01-03T03:46:21.795Z,9.747484
2023-01-03T03:47:21.779Z,9.747415
2023-01-03T03:48:21.697Z,9.747453
2023-01-03T03:49:21.688Z,9.747485
2023-01-03T03:50:21.674Z,9.747412
2023-01-03T03:51:21.660Z,9.747421
2023-01-03T03:52:21.650Z,9.747429
2023-01-03T03:53:21.668Z,9.747349
2023-01-03T03:54:21.642Z,9.747392
2023-01-03T03:55:21.625Z,9.747395
2023-01-03T03:56:21.625Z,9.747417
2023-01-03T03:57:21.633Z,9.747346
2023-01-03T03:58:21.635Z,9.747265
2023-01-03T03:59:21.606Z,9.747386
2023-01-03T04:00:21.640Z,9.747396
2023-01-03T04:01:21.615Z,9.747424
2023-01-03T04:02:21.714Z,9.747515
2023-01-03T04:03:22.675Z,9.747558
2023-01-03T04:04:21.570Z,9.747422
2023-01-03T04:05:21.574Z,9.747400
2023-01-03T04:06:21.548Z,9.747455
2023-01-03T04:07:21.545Z,9.747466
2023-01-03T04:08:21.604Z,9.747491
2023-01-03T04:09:21.548Z,9.747529
2023-01-03T04:10:21.536Z,9.747442
2023-01-03T04:11:21.517Z,9.747428
2023-01-03T04:12:21.511Z,9.747426
2023-01-03T04:13:21.549Z,9.747401
2023-01-03T04:14:21.495Z,9.747499
2023-01-03T04:15:21.484Z,9.747502
2023-01-03T04:16:21.520Z,9.747375
2023-01-03T04:17:21.490Z,9.747380
2023-01-03T04:18:21.486Z,9.747387
2023-01-03T04:19:21.455Z,9.747381
2023-01-03T04:20:21.445Z,9.747479
2023-01-03T04:21:21.474Z,9.747380
2023-01-03T04:22:21.450Z,9.747434
2023-01-03T04:23:21.483Z,9.747434
2023-01-03T04:24:21.430Z,9.747346
2023-01-03T04:25:21.437Z,9.747360
2023-01-03T04:26:21.409Z,9.747407
2023-01-03T04:27:21.410Z,9.747362
2023-01-03T04:28:21.436Z,9.747407
2023-01-03T04:29:21.414Z,9.747392
2023-01-03T04:30:21.366Z,9.747243
2023-01-03T04:31:21.417Z,9.747236
2023-01-03T04:32:21.356Z,9.747357
2023-01-03T04:33:21.394Z,9.747437
2023-01-03T04:34:22.333Z,9.747364
2023-01-03T04:35:21.334Z,9.747314
2023-01-03T04:36:21.406Z,9.747552
2023-01-03T04:37:21.332Z,9.747533
2023-01-03T04:38:21.330Z,9.747471
2023-01-03T04:39:21.310Z,9.747480
2023-01-03T04:40:21.295Z,9.747475
2023-01-03T04:41:21.307Z,9.747450
2023-01-03T04:42:21.283Z,9.747488
2023-01-03T04:43:21.320Z,9.747459
2023-01-03T04:44:21.310Z,9.747410
2023-01-03T04:45:21.268Z,9.747431
2023-01-03T04:46:21.386Z,9.747440
2023-01-03T04:47:21.243Z,9.747414
2023-01-03T04:48:21.270Z,9.747353
2023-01-03T04:49:21.259Z,9.747422
2023-01-03T04:50:21.224Z,9.747269
2023-01-03T04:51:21.270Z,9.747395
2023-01-03T04:52:21.221Z,9.747400
2023-01-03T04:53:21.236Z,9.747422
2023-01-03T04:54:22.182Z,9.747332
2023-01-03T04:55:21.190Z,9.747233
2023-01-03T04:56:21.200Z,9.747602
2023-01-03T04:57:21.175Z,9.747185
2023-01-03T04:58:21.175Z,9.747141
2023-01-03T04:59:21.175Z,9.747438
2023-01-03T05:00:21.143Z,9.747190
2023-01-03T05:01:21.273Z,9.747359
2023-01-03T05:02:21.290Z,9.747552
2023-01-03T05:03:27.477Z,9.747605
2023-01-03T05:04:23.165Z,9.747441
2023-01-03T05:05:21.108Z,9.746854
2023-01-03T05:06:21.123Z,9.747082
2023-01-03T05:07:21.142Z,9.747175
2023-01-03T05:08:21.152Z,9.747054
2023-01-03T05:09:21.117Z,9.746898
2023-01-03T05:10:22.101Z,9.746724
2023-01-03T05:11:21.051Z,9.747823
2023-01-03T05:12:21.036Z,9.747820
2023-01-03T05:13:21.037Z,9.747353
2023-01-03T05:14:21.954Z,9.746923
2023-01-03T05:15:21.029Z,9.747096
2023-01-03T05:16:21.087Z,9.747218
2023-01-03T05:17:21.007Z,9.746736
2023-01-03T05:18:21.008Z,9.746732
2023-01-03T05:19:21.017Z,9.747473
2023-01-03T05:20:20.986Z,9.747459
2023-01-03T05:21:20.983Z,9.747560
2023-01-03T05:22:20.974Z,9.747515
2023-01-03T05:23:21.045Z,9.747482
2023-01-03T05:24:20.987Z,9.747423
2023-01-03T05:25:20.950Z,9.747482
2023-01-03T05:26:20.950Z,9.747479
2023-01-03T05:27:20.938Z,9.747519
2023-01-03T05:28:20.921Z,9.747439
2023-01-03T05:29:20.952Z,9.747389
2023-01-03T05:30:20.931Z,9.747404
2023-01-03T05:31:21.047Z,9.747352
2023-01-03T05:32:20.994Z,9.747409
2023-01-03T05:33:21.892Z,9.747391
2023-01-03T05:34:20.939Z,9.747326
2023-01-03T05:35:20.878Z,9.747216
2023-01-03T05:36:20.875Z,9.747410
2023-01-03T05:37:20.850Z,9.747385
2023-01-03T05:38:20.849Z,9.747435
2023-01-03T05:39:20.860Z,9.747259
2023-01-03T05:40:20.842Z,9.747238
2023-01-03T05:41:20.828Z,9.747356
2023-01-03T05:42:20.823Z,9.747145
2023-01-03T05:43:20.816Z,9.747360
2023-01-03T05:44:20.827Z,9.747323
2023-01-03T05:45:20.791Z,9.747220
2023-01-03T05:46:20.862Z,9.747408
2023-01-03T05:47:20.782Z,9.747397
2023-01-03T05:48:20.776Z,9.747478
2023-01-03T05:49:20.810Z,9.747578
2023-01-03T05:50:20.760Z,9.747515
2023-01-03T05:51:20.737Z,9.747394
2023-01-03T05:52:21.740Z,9.747293
2023-01-03T05:53:20.754Z,9.747307
2023-01-03T05:54:20.756Z,9.747357
2023-01-03T05:55:20.723Z,9.747315
2023-01-03T05:56:20.705Z,9.747327
2023-01-03T05:57:20.711Z,9.747460
2023-01-03T05:58:20.680Z,9.747426
2023-01-03T05:59:21.761Z,9.747328
2023-01-03T06:00:20.687Z,9.747442
2023-01-03T06:01:20.725Z,9.747464
2023-01-03T06:02:20.688Z,9.747347
2023-01-03T06:03:20.650Z,9.747447
2023-01-03T06:04:20.726Z,9.747308
2023-01-03T06:05:20.632Z,9.747350
2023-01-03T06:06:20.626Z,9.747360
2023-01-03T06:07:20.629Z,9.747412
2023-01-03T06:08:20.617Z,9.747473
2023-01-03T06:09:20.619Z,9.747462
2023-01-03T06:10:20.635Z,9.747453
2023-01-03T06:11:20.597Z,9.747329
2023-01-03T06:12:20.605Z,9.747330
2023-01-03T06:13:21.577Z,9.747363
2023-01-03T06:14:20.582Z,9.747290
2023-01-03T06:15:20.588Z,9.747473
2023-01-03T06:16:24.663Z,9.747379
2023-01-03T06:17:21.629Z,9.747386
2023-01-03T06:18:20.558Z,9.747401
2023-01-03T06:19:20.594Z,9.747353
2023-01-03T06:20:20.565Z,9.747448
2023-01-03T06:21:20.549Z,9.747326
2023-01-03T06:22:20.525Z,9.747375
2023-01-03T06:23:20.533Z,9.747439
2023-01-03T06:24:20.503Z,9.747449
2023-01-03T06:25:20.521Z,9.747417
2023-01-03T06:26:20.479Z,9.747375
2023-01-03T06:27:20.472Z,9.747259
2023-01-03T06:28:20.461Z,9.747399
2023-01-03T06:29:20.513Z,9.747473
2023-01-03T06:30:20.471Z,9.747448
2023-01-03T06:31:20.506Z,9.747422
2023-01-03T06:32:20.437Z,9.747483
2023-01-03T06:33:20.411Z,9.747411
2023-01-03T06:34:20.411Z,9.747440
2023-01-03T06:35:20.429Z,9.747420
2023-01-03T06:36:20.396Z,9.747467
2023-01-03T06:37:20.392Z,9.747476
2023-01-03T06:38:20.375Z,9.747508
2023-01-03T06:39:20.398Z,9.747481
2023-01-03T06:40:20.390Z,9.747348
2023-01-03T06:41:20.345Z,9.747435
2023-01-03T06:42:21.361Z,9.747482
2023-01-03T06:43:20.347Z,9.747473
2023-01-03T06:44:20.362Z,9.747449
2023-01-03T06:45:20.350Z,9.747448
2023-01-03T06:46:20.381Z,9.747404
2023-01-03T06:47:20.306Z,9.747439
2023-01-03T06:48:20.301Z,9.747383
2023-01-03T06:49:20.298Z,9.747486
2023-01-03T06:50:20.308Z,9.747430
2023-01-03T06:51:20.276Z,9.747478
2023-01-03T06:52:20.269Z,9.747397
2023-01-03T06:53:20.280Z,9.747455
2023-01-03T06:54:20.312Z,9.747421
2023-01-03T06:55:20.375Z,9.747416
2023-01-03T06:56:20.244Z,9.747397
2023-01-03T06:57:25.696Z,9.747430
2023-01-03T06:58:21.986Z,9.747449
2023-01-03T06:59:20.218Z,9.747367
2023-01-03T07:00:20.245Z,9.747416
2023-01-03T07:01:20.282Z,9.747354
2023-01-03T07:02:20.312Z,9.747357
2023-01-03T07:03:20.190Z,9.747425
2023-01-03T07:04:20.220Z,9.747503
2023-01-03T07:05:20.182Z,9.747417
2023-01-03T07:06:20.189Z,9.747397
2023-01-03T07:07:20.168Z,9.747442
2023-01-03T07:08:20.147Z,9.747525
2023-01-03T07:09:20.143Z,9.747463
2023-01-03T07:10:20.135Z,9.747460
2023-01-03T07:11:20.158Z,9.747453
2023-01-03T07:12:20.122Z,9.747352
2023-01-03T07:13:20.116Z,9.747395
2023-01-03T07:14:20.144Z,9.747328
2023-01-03T07:15:20.103Z,9.747357
2023-01-03T07:16:20.205Z,9.747253
2023-01-03T07:17:20.095Z,9.747390
2023-01-03T07:18:20.076Z,9.747413
2023-01-03T07:19:20.075Z,9.747478
2023-01-03T07:20:20.069Z,9.747489
2023-01-03T07:21:20.082Z,9.747508
2023-01-03T07:22:20.052Z,9.747512
2023-01-03T07:23:20.044Z,9.747385
2023-01-03T07:24:20.039Z,9.747349
2023-01-03T07:25:20.038Z,9.747426
2023-01-03T07:26:20.054Z,9.747476
2023-01-03T07:27:20.008Z,9.747360
2023-01-03T07:28:19.994Z,9.747416
2023-01-03T07:29:20.016Z,9.747320
2023-01-03T07:30:19.988Z,9.747473
2023-01-03T07:31:20.049Z,9.747478
2023-01-03T07:32:19.993Z,9.747485
2023-01-03T07:33:19.958Z,9.747546
2023-01-03T07:34:20.004Z,9.747542
2023-01-03T07:35:19.957Z,9.747416
2023-01-03T07:36:19.999Z,9.747525
2023-01-03T07:37:19.942Z,9.747512
2023-01-03T07:38:19.932Z,9.747472
2023-01-03T07:39:19.919Z,9.747394
2023-01-03T07:40:19.911Z,9.747401
2023-01-03T07:41:19.950Z,9.747456
2023-01-03T07:42:19.894Z,9.747494
2023-01-03T07:43:19.922Z,9.747384
2023-01-03T07:44:19.884Z,9.747416
2023-01-03T07:45:19.871Z,9.747561
2023-01-03T07:46:20.005Z,9.747412
2023-01-03T07:47:19.866Z,9.747423
2023-01-03T07:48:20.889Z,9.747376
2023-01-03T07:49:19.842Z,9.747493
2023-01-03T07:50:19.839Z,9.747400
2023-01-03T07:51:19.836Z,9.747370
2023-01-03T07:52:19.815Z,9.747411
2023-01-03T07:53:19.848Z,9.747519
2023-01-03T07:54:19.809Z,9.747415
2023-01-03T07:55:19.797Z,9.747333
2023-01-03T07:56:19.811Z,9.747273
2023-01-03T07:57:19.772Z,9.747371
2023-01-03T07:58:19.813Z,9.747478
2023-01-03T07:59:19.831Z,9.747346
2023-01-03T08:00:19.765Z,9.747293
2023-01-03T08:01:19.858Z,9.747295
2023-01-03T08:02:19.894Z,9.747444
2023-01-03T08:03:19.759Z,9.747575
2023-01-03T08:04:19.844Z,9.747387
2023-01-03T08:05:19.719Z,9.747395
2023-01-03T08:06:19.724Z,9.747405
2023-01-03T08:07:19.710Z,9.747303
2023-01-03T08:08:19.751Z,9.747266
2023-01-03T08:09:19.693Z,9.747424
2023-01-03T08:10:19.685Z,9.747498
2023-01-03T08:11:19.684Z,9.747405
2023-01-03T08:12:19.668Z,9.747456
2023-01-03T08:13:19.708Z,9.747532
2023-01-03T08:14:25.252Z,9.747394
2023-01-03T08:15:21.651Z,9.747424
2023-01-03T08:16:19.736Z,9.747228
2023-01-03T08:17:19.634Z,9.747233
2023-01-03T08:18:19.633Z,9.747256
2023-01-03T08:19:19.660Z,9.747314
2023-01-03T08:20:19.610Z,9.747368
2023-01-03T08:21:19.603Z,9.747333
2023-01-03T08:22:19.609Z,9.747409
2023-01-03T08:23:19.587Z,9.747332
2023-01-03T08:24:19.603Z,9.747393
2023-01-03T08:25:19.574Z,9.747328
2023-01-03T08:26:19.566Z,9.747390
2023-01-03T08:27:19.591Z,9.747468
2023-01-03T08:28:19.547Z,9.747305
2023-01-03T08:29:19.590Z,9.747408
2023-01-03T08:30:19.534Z,9.747406
2023-01-03T08:31:19.598Z,9.747430
2023-01-03T08:32:19.521Z,9.747522
2023-01-03T08:33:19.518Z,9.747510
2023-01-03T08:34:25.274Z,9.747413
2023-01-03T08:35:21.503Z,9.747368
2023-01-03T08:36:19.503Z,9.747422
2023-01-03T08:37:19.484Z,9.747472
2023-01-03T08:38:19.469Z,9.747495
2023-01-03T08:39:19.498Z,9.747463
2023-01-03T08:40:19.461Z,9.747391
2023-01-03T08:41:19.447Z,9.747520
2023-01-03T08:42:19.440Z,9.747359
2023-01-03T08:43:19.439Z,9.747304
2023-01-03T08:44:19.455Z,9.747254
2023-01-03T08:45:19.420Z,9.747350
2023-01-03T08:46:19.428Z,9.747401
2023-01-03T08:47:19.440Z,9.747338
2023-01-03T08:48:19.404Z,9.747352
2023-01-03T08:49:19.416Z,9.747351
2023-01-03T08:50:19.401Z,9.747374
2023-01-03T08:51:19.382Z,9.747438
2023-01-03T08:52:19.371Z,9.747459
2023-01-03T08:53:19.362Z,9.747312
2023-01-03T08:54:19.376Z,9.747295
2023-01-03T08:55:19.344Z,9.747378
2023-01-03T08:56:19.338Z,9.747520
2023-01-03T08:57:19.329Z,9.747474
2023-01-03T08:58:19.329Z,9.747453
2023-01-03T08:59:19.374Z,9.747395
2023-01-03T09:00:19.314Z,9.747506
2023-01-03T09:01:19.441Z,9.747413
2023-01-03T09:02:19.407Z,9.747394
2023-01-03T09:03:19.522Z,9.747505
2023-01-03T09:04:19.323Z,9.747587
2023-01-03T09:05:19.274Z,9.747590
2023-01-03T09:06:19.267Z,9.747474
2023-01-03T09:07:19.233Z,9.747460
2023-01-03T09:08:20.243Z,9.747458
2023-01-03T09:09:19.278Z,9.747390
2023-01-03T09:10:19.234Z,9.747399
2023-01-03T09:11:19.222Z,9.747584
2023-01-03T09:12:19.212Z,9.747316
2023-01-03T09:13:19.210Z,9.747446
2023-01-03T09:14:19.235Z,9.747428
2023-01-03T09:15:19.199Z,9.747498
2023-01-03T09:16:19.225Z,9.747475
2023-01-03T09:17:19.181Z,9.747432
2023-01-03T09:18:19.166Z,9.747542
2023-01-03T09:19:19.192Z,9.747682
2023-01-03T09:20:19.167Z,9.747641
2023-01-03T09:21:19.156Z,9.747517
2023-01-03T09:22:19.324Z,9.747472
2023-01-03T09:23:19.134Z,9.747495
2023-01-03T09:24:19.143Z,9.747373
2023-01-03T09:25:19.142Z,9.747229
2023-01-03T09:26:19.115Z,9.747063
2023-01-03T09:27:19.114Z,9.747179
2023-01-03T09:28:19.099Z,9.747345
2023-01-03T09:29:19.107Z,9.747400
2023-01-03T09:30:19.122Z,9.747413
2023-01-03T09:31:19.109Z,9.747356
2023-01-03T09:32:19.182Z,9.747315
2023-01-03T09:33:19.058Z,9.747287
2023-01-03T09:34:19.050Z,9.747403
2023-01-03T09:35:19.088Z,9.747522
2023-01-03T09:36:19.037Z,9.747459
2023-01-03T09:37:19.040Z,9.747353
2023-01-03T09:38:19.034Z,9.747389
2023-01-03T09:39:19.042Z,9.747260
2023-01-03T09:40:19.055Z,9.747412
2023-01-03T09:41:18.996Z,9.747476
2023-01-03T09:42:18.987Z,9.747466
2023-01-03T09:43:25.049Z,9.747479
2023-01-03T09:44:20.970Z,9.747527
2023-01-03T09:45:18.996Z,9.747498
2023-01-03T09:46:18.992Z,9.747594
2023-01-03T09:47:19.065Z,9.747480
2023-01-03T09:48:18.945Z,9.747431
2023-01-03T09:49:18.938Z,9.747303
2023-01-03T09:50:34.620Z,9.747511
2023-01-03T09:51:25.944Z,9.747451
2023-01-03T09:52:20.909Z,9.747374
2023-01-03T09:53:18.928Z,9.747281
2023-01-03T09:54:18.901Z,9.747401
2023-01-03T09:55:18.917Z,9.747430
2023-01-03T09:56:18.879Z,9.747394
2023-01-03T09:57:23.205Z,9.747361
2023-01-03T09:58:20.864Z,9.747350
2023-01-03T09:59:18.875Z,9.747371
2023-01-03T10:00:18.887Z,9.747443
2023-01-03T10:01:18.953Z,9.747436
2023-01-03T10:02:18.991Z,9.747332
2023-01-03T10:03:18.875Z,9.747437
2023-01-03T10:04:18.819Z,9.747413
2023-01-03T10:05:18.841Z,9.747398
2023-01-03T10:06:18.825Z,9.747414
2023-01-03T10:07:18.798Z,9.747475
2023-01-03T10:08:18.809Z,9.747480
2023-01-03T10:09:18.799Z,9.747538
2023-01-03T10:10:18.807Z,9.747610
2023-01-03T10:11:18.775Z,9.747542
2023-01-03T10:12:18.772Z,9.747519
2023-01-03T10:13:20.340Z,9.747531
2023-01-03T10:14:19.749Z,9.747549
2023-01-03T10:15:18.791Z,9.747571
2023-01-03T10:16:18.766Z,9.747731
2023-01-03T10:17:18.730Z,9.747497
2023-01-03T10:18:18.716Z,9.747341
2023-01-03T10:19:18.714Z,9.747379
2023-01-03T10:20:18.734Z,9.747590
2023-01-03T10:21:18.691Z,9.747475
2023-01-03T10:22:18.683Z,9.747472
2023-01-03T10:23:18.675Z,9.747406
2023-01-03T10:24:18.686Z,9.747449
2023-01-03T10:25:18.703Z,9.747447
2023-01-03T10:26:51.125Z,9.747396
2023-01-03T10:27:18.656Z,9.747398
2023-01-03T10:28:18.641Z,9.747447
2023-01-03T10:29:18.631Z,9.747314
2023-01-03T10:30:18.633Z,9.747574
2023-01-03T10:31:18.716Z,9.747375
2023-01-03T10:32:18.698Z,9.747387
2023-01-03T10:33:18.627Z,9.747322
2023-01-03T10:34:18.617Z,9.747415
2023-01-03T10:35:18.602Z,9.747274
2023-01-03T10:36:18.624Z,9.747258
2023-01-03T10:37:18.577Z,9.747330
2023-01-03T10:38:18.559Z,9.747470
2023-01-03T10:39:18.569Z,9.747437
2023-01-03T10:40:18.552Z,9.747427
2023-01-03T10:41:18.564Z,9.747357
2023-01-03T10:42:18.532Z,9.747434
2023-01-03T10:43:18.554Z,9.747437
2023-01-03T10:44:18.517Z,9.747491
2023-01-03T10:45:18.521Z,9.747446
2023-01-03T10:46:18.583Z,9.747253
2023-01-03T10:47:18.499Z,9.747486
2023-01-03T10:48:18.489Z,9.747480
2023-01-03T10:49:27.871Z,9.747303
2023-01-03T10:50:20.492Z,9.747222
2023-01-03T10:51:18.492Z,9.747249
2023-01-03T10:52:18.472Z,9.747241
2023-01-03T10:53:19.465Z,9.747402
2023-01-03T10:54:18.477Z,9.747280
2023-01-03T10:55:19.119Z,9.747229
2023-01-03T10:56:18.471Z,9.747375
2023-01-03T10:57:18.426Z,9.747378
2023-01-03T10:58:18.429Z,9.747519
2023-01-03T10:59:18.407Z,9.747368
2023-01-03T11:00:18.423Z,9.747240
2023-01-03T11:01:18.525Z,9.747262
2023-01-03T11:02:18.592Z,9.747246
2023-01-03T11:03:18.456Z,9.747225
2023-01-03T11:04:18.407Z,9.747252
2023-01-03T11:05:18.364Z,9.747255
2023-01-03T11:06:18.398Z,9.747259
2023-01-03T11:07:18.354Z,9.747228
2023-01-03T11:08:18.405Z,9.747334
2023-01-03T11:09:18.329Z,9.747308
2023-01-03T11:10:18.346Z,9.747452
2023-01-03T11:11:18.348Z,9.747277
2023-01-03T11:12:18.300Z,9.747207
2023-01-03T11:13:18.304Z,9.747127
2023-01-03T11:14:18.291Z,9.747129
2023-01-03T11:15:18.292Z,9.747271
2023-01-03T11:16:18.356Z,9.747252
2023-01-03T11:17:18.357Z,9.747453
2023-01-03T11:18:18.283Z,9.747508
2023-01-03T11:19:18.258Z,9.747639
2023-01-03T11:20:18.282Z,9.747767
2023-01-03T11:21:18.241Z,9.748047
2023-01-03T11:22:18.270Z,9.748043
2023-01-03T11:23:18.221Z,9.747969
2023-01-03T11:24:18.217Z,9.748245
2023-01-03T11:25:18.203Z,9.747924
2023-01-03T11:26:18.209Z,9.747671
2023-01-03T11:27:18.213Z,9.747651
2023-01-03T11:28:18.186Z,9.747555
2023-01-03T11:29:18.176Z,9.747602
2023-01-03T11:30:18.167Z,9.747694
2023-01-03T11:31:18.248Z,9.747693
2023-01-03T11:32:18.224Z,9.747458
2023-01-03T11:33:20.383Z,9.747441
2023-01-03T11:34:19.148Z,9.747561
2023-01-03T11:35:23.399Z,9.747593
2023-01-03T11:36:20.132Z,9.747643
2023-01-03T11:37:18.145Z,9.747606
2023-01-03T11:38:18.112Z,9.747682
2023-01-03T11:39:21.367Z,9.747664
2023-01-03T11:40:20.084Z,9.747665
2023-01-03T11:41:18.098Z,9.747614
2023-01-03T11:42:18.102Z,9.747579
2023-01-03T11:43:18.068Z,9.747602
2023-01-03T11:44:18.060Z,9.747624